createdAt,value
2018-03-20T00:02:06.310Z,0.80
2018-03-20T00:04:33.768Z,0.80
2018-03-20T00:07:01.238Z,0.70
2018-03-20T00:09:28.680Z,0.70
2018-03-20T00:11:56.181Z,0.70
2018-03-20T00:14:24.408Z,0.60
2018-03-20T00:16:51.886Z,0.50
2018-03-20T00:19:19.373Z,0.60
2018-03-20T00:21:47.605Z,0.60
2018-03-20T00:24:15.060Z,0.60
2018-03-20T00:26:42.537Z,0.60
2018-03-20T00:29:10.009Z,0.60
2018-03-20T00:31:38.246Z,0.60
2018-03-20T00:34:05.713Z,0.50
2018-03-20T00:36:33.180Z,0.60
2018-03-20T00:39:00.737Z,0.60
2018-03-20T00:41:28.297Z,0.50
2018-03-20T00:43:55.748Z,0.50
2018-03-20T00:46:26.945Z,0.50
2018-03-20T00:48:54.509Z,0.50
2018-03-20T00:51:22.016Z,0.50
2018-03-20T00:53:49.477Z,0.50
2018-03-20T00:56:16.946Z,0.40
2018-03-20T00:58:45.169Z,0.40
2018-03-20T01:01:12.637Z,0.30
2018-03-20T01:03:40.140Z,0.30
2018-03-20T01:06:08.372Z,0.10
2018-03-20T01:08:35.843Z,0.00
2018-03-20T01:11:03.312Z,0.00
2018-03-20T01:13:30.916Z,0.00
2018-03-20T01:15:58.413Z,0.00
2018-03-20T01:18:25.927Z,-0.10
2018-03-20T01:20:53.396Z,-0.10
2018-03-20T01:23:20.854Z,0.00
2018-03-20T01:25:48.349Z,0.00
2018-03-20T01:28:16.585Z,0.00
2018-03-20T01:30:44.040Z,-0.10
2018-03-20T01:33:11.504Z,0.00
2018-03-20T01:35:38.993Z,-0.10
2018-03-20T01:38:06.461Z,-0.10
2018-03-20T01:40:33.996Z,0.00
2018-03-20T01:43:01.452Z,0.00
2018-03-20T01:45:28.908Z,0.10
2018-03-20T01:47:56.368Z,0.10
2018-03-20T01:50:23.834Z,0.00
2018-03-20T01:53:03.160Z,0.00
2018-03-20T01:55:31.431Z,-0.10
2018-03-20T01:57:58.892Z,-0.10
2018-03-20T02:00:26.349Z,0.00
2018-03-20T02:02:54.620Z,-0.10
2018-03-20T02:05:22.288Z,-0.10
2018-03-20T02:07:49.958Z,-0.10
2018-03-20T02:10:17.521Z,-0.20
2018-03-20T02:12:44.997Z,-0.30
2018-03-20T02:15:13.248Z,-0.30
2018-03-20T02:17:40.708Z,-0.40
2018-03-20T02:20:08.215Z,-0.30
2018-03-20T02:22:35.686Z,-0.30
2018-03-20T02:25:03.162Z,-0.30
2018-03-20T02:27:30.748Z,-0.30
2018-03-20T02:29:58.216Z,-0.30
2018-03-20T02:32:26.470Z,-0.20
2018-03-20T02:34:53.941Z,-0.30
2018-03-20T02:37:22.161Z,-0.20
2018-03-20T02:39:49.657Z,-0.30
2018-03-20T02:42:17.118Z,-0.20
2018-03-20T02:44:44.677Z,-0.20
2018-03-20T02:47:12.141Z,-0.20
2018-03-20T02:49:40.373Z,-0.20
2018-03-20T02:52:07.865Z,-0.30
2018-03-20T02:54:35.340Z,-0.20
2018-03-20T02:57:03.589Z,-0.30
2018-03-20T02:59:31.043Z,-0.30
2018-03-20T03:02:00.044Z,-0.40
2018-03-20T03:04:27.604Z,-0.40
2018-03-20T03:06:55.148Z,-0.30
2018-03-20T03:09:22.616Z,-0.30
2018-03-20T03:11:50.164Z,-0.40
2018-03-20T03:14:17.625Z,-0.40
2018-03-20T03:16:45.112Z,-0.40
2018-03-20T03:19:13.360Z,-0.50
2018-03-20T03:21:41.601Z,-0.50
2018-03-20T03:24:09.089Z,-0.60
2018-03-20T03:26:36.558Z,-0.60
2018-03-20T03:29:04.836Z,-0.50
2018-03-20T03:31:32.341Z,-0.60
2018-03-20T03:33:59.808Z,-0.50
2018-03-20T03:36:27.284Z,-0.60
2018-03-20T03:38:54.738Z,-0.60
2018-03-20T03:41:22.205Z,-0.60
2018-03-20T03:43:49.761Z,-0.60
2018-03-20T03:46:18.744Z,-0.90
2018-03-20T03:48:46.226Z,-0.90
2018-03-20T03:51:13.771Z,-0.90
2018-03-20T03:53:42.008Z,-1.00
2018-03-20T03:56:09.512Z,-1.10
2018-03-20T03:58:37.080Z,-1.10
2018-03-20T04:01:04.637Z,-1.20
2018-03-20T04:03:32.113Z,-1.30
2018-03-20T04:06:00.391Z,-1.40
2018-03-20T04:08:27.924Z,-1.50
2018-03-20T04:10:55.405Z,-1.50
2018-03-20T04:13:23.707Z,-1.40
2018-03-20T04:15:51.199Z,-1.40
2018-03-20T04:18:18.769Z,-1.30
2018-03-20T04:20:46.247Z,-1.20
2018-03-20T04:23:14.476Z,-1.10
2018-03-20T04:25:42.809Z,-1.10
2018-03-20T04:28:11.057Z,-1.00
2018-03-20T04:30:39.278Z,-1.00
2018-03-20T04:33:06.785Z,-1.10
2018-03-20T04:35:34.249Z,-1.00
2018-03-20T04:38:01.814Z,-1.00
2018-03-20T04:40:30.044Z,-0.90
2018-03-20T04:42:57.529Z,-1.00
2018-03-20T04:45:25.001Z,-0.90
2018-03-20T04:47:52.473Z,-0.80
2018-03-20T04:50:20.698Z,-0.80
2018-03-20T04:52:48.168Z,-0.90
2018-03-20T04:55:15.645Z,-0.80
2018-03-20T04:57:43.254Z,-0.80
2018-03-20T05:00:10.728Z,-0.80
2018-03-20T05:02:38.199Z,-0.80
2018-03-20T05:05:05.697Z,-0.70
2018-03-20T05:07:33.920Z,-0.60
2018-03-20T05:10:01.396Z,-0.70
2018-03-20T05:12:30.368Z,-0.70
2018-03-20T05:14:57.839Z,-0.70
2018-03-20T05:17:25.296Z,-0.80
2018-03-20T05:23:10.046Z,-0.60
2018-03-20T05:25:37.508Z,-0.60
2018-03-20T05:28:04.976Z,-0.50
2018-03-20T05:30:32.478Z,-0.60
2018-03-20T05:33:00.708Z,-0.50
2018-03-20T05:35:28.187Z,-0.60
2018-03-20T05:37:55.671Z,-0.40
2018-03-20T05:40:23.897Z,-0.30
2018-03-20T05:42:51.388Z,-0.30
2018-03-20T05:45:19.609Z,-0.20
2018-03-20T05:47:49.553Z,-0.30
2018-03-20T05:50:22.755Z,-0.20
2018-03-20T05:52:50.208Z,-0.20
2018-03-20T05:55:17.677Z,-0.20
2018-03-20T05:57:45.345Z,-0.30
2018-03-20T06:00:13.581Z,-0.50
2018-03-20T06:02:41.058Z,-0.60
2018-03-20T06:05:08.516Z,-0.70
2018-03-20T06:07:36.008Z,-0.70
2018-03-20T06:10:04.237Z,-0.60
2018-03-20T06:12:31.701Z,-0.60
2018-03-20T06:14:59.160Z,-0.40
2018-03-20T06:17:26.616Z,-0.40
2018-03-20T06:19:54.084Z,-0.40
2018-03-20T06:22:21.654Z,-0.40
2018-03-20T06:24:49.124Z,-0.30
2018-03-20T06:27:17.410Z,-0.40
2018-03-20T06:29:45.601Z,-0.40
2018-03-20T06:32:13.096Z,-0.50
2018-03-20T06:34:40.588Z,-0.30
2018-03-20T06:37:08.824Z,0.10
2018-03-20T06:39:36.405Z,0.00
2018-03-20T06:42:03.976Z,0.10
2018-03-20T06:44:32.205Z,-0.30
2018-03-20T06:46:59.671Z,-0.30
2018-03-20T06:49:27.200Z,-0.20
2018-03-20T06:51:54.658Z,-0.30
2018-03-20T06:54:22.180Z,-0.30
2018-03-20T06:56:50.413Z,-0.30
2018-03-20T06:59:17.940Z,-0.40
2018-03-20T07:01:45.409Z,-0.40
2018-03-20T07:04:12.877Z,-0.40
2018-03-20T07:06:41.348Z,-0.20
2018-03-20T07:09:08.840Z,-0.10
2018-03-20T07:11:36.400Z,-0.20
2018-03-20T07:14:03.881Z,-0.20
2018-03-20T07:16:32.108Z,-0.50
2018-03-20T07:18:59.585Z,-0.60
2018-03-20T07:21:27.825Z,-0.70
2018-03-20T07:23:55.288Z,-0.80
2018-03-20T07:26:22.744Z,-0.70
2018-03-20T07:28:50.202Z,-0.50
2018-03-20T07:31:17.669Z,-0.60
2018-03-20T07:33:45.143Z,-0.60
2018-03-20T07:36:12.614Z,-0.60
2018-03-20T07:38:40.150Z,-0.60
2018-03-20T07:41:07.713Z,-0.40
2018-03-20T07:43:35.173Z,-0.30
2018-03-20T07:46:02.739Z,-0.20
2018-03-20T07:48:30.221Z,-0.10
2018-03-20T07:50:57.666Z,-0.10
2018-03-20T07:53:25.884Z,0.10
2018-03-20T07:55:53.388Z,0.00
2018-03-20T07:58:20.852Z,0.20
2018-03-20T08:00:49.258Z,0.10
2018-03-20T08:03:16.772Z,0.10
2018-03-20T08:05:44.250Z,0.20
2018-03-20T08:08:12.075Z,0.40
2018-03-20T08:10:39.527Z,0.50
2018-03-20T08:13:07.072Z,0.70
2018-03-20T08:15:35.244Z,1.00
2018-03-20T08:18:02.724Z,1.00
2018-03-20T08:20:30.185Z,0.90
2018-03-20T08:22:57.647Z,0.80
2018-03-20T08:25:25.116Z,0.90
2018-03-20T08:27:52.669Z,1.10
2018-03-20T08:30:20.148Z,1.20
2018-03-20T08:32:48.386Z,1.20
2018-03-20T08:35:15.877Z,1.10
2018-03-20T08:37:44.128Z,0.90
2018-03-20T08:40:11.696Z,0.80
2018-03-20T08:42:39.230Z,0.80
2018-03-20T08:45:06.762Z,0.70
2018-03-20T08:47:34.221Z,0.80
2018-03-20T08:50:01.720Z,1.10
2018-03-20T08:52:29.268Z,1.20
2018-03-20T08:54:56.736Z,1.20
2018-03-20T08:57:24.201Z,1.20
2018-03-20T08:59:51.692Z,1.30
2018-03-20T09:02:19.152Z,1.30
2018-03-20T09:04:46.658Z,1.30
2018-03-20T09:07:14.120Z,1.40
2018-03-20T09:09:41.577Z,1.50
2018-03-20T09:12:09.193Z,1.80
2018-03-20T09:14:36.640Z,1.80
2018-03-20T09:17:04.141Z,1.90
2018-03-20T09:19:31.606Z,1.90
2018-03-20T09:21:59.062Z,2.00
2018-03-20T09:24:26.574Z,2.10
2018-03-20T09:26:54.793Z,2.30
2018-03-20T09:29:23.781Z,2.40
2018-03-20T09:31:51.253Z,2.40
2018-03-20T09:34:18.759Z,2.70
2018-03-20T09:36:46.256Z,2.70
2018-03-20T09:39:13.721Z,2.80
2018-03-20T09:41:41.272Z,2.80
2018-03-20T09:44:08.846Z,2.90
2018-03-20T09:46:36.391Z,3.00
2018-03-20T09:49:03.932Z,2.90
2018-03-20T09:51:32.104Z,2.60
2018-03-20T09:53:59.571Z,2.60
2018-03-20T09:56:27.096Z,2.80
2018-03-20T09:58:54.558Z,2.70
2018-03-20T10:01:22.056Z,2.70
2018-03-20T10:03:49.624Z,2.80
2018-03-20T10:06:17.088Z,2.70
2018-03-20T10:08:45.345Z,2.80
2018-03-20T10:11:12.800Z,2.80
2018-03-20T10:13:40.289Z,2.90
2018-03-20T10:16:08.531Z,3.10
2018-03-20T10:18:36.099Z,3.00
2018-03-20T10:21:04.375Z,3.20
2018-03-20T10:23:31.864Z,3.20
2018-03-20T10:25:59.453Z,3.40
2018-03-20T10:28:26.924Z,3.40
2018-03-20T10:30:54.395Z,3.60
2018-03-20T10:33:21.857Z,3.80
2018-03-20T10:35:49.322Z,3.90
2018-03-20T10:38:16.794Z,4.00
2018-03-20T10:40:45.142Z,3.90
2018-03-20T10:43:13.378Z,3.50
2018-03-20T10:45:40.846Z,3.50
2018-03-20T10:48:08.341Z,3.20
2018-03-20T10:50:35.813Z,3.00
2018-03-20T10:53:04.049Z,2.70
2018-03-20T10:55:31.543Z,2.60
2018-03-20T10:57:59.808Z,2.50
2018-03-20T11:00:33.096Z,2.50
2018-03-20T11:03:08.289Z,2.60
2018-03-20T11:05:35.798Z,2.80
2018-03-20T11:08:03.348Z,2.80
2018-03-20T11:10:30.822Z,2.90
2018-03-20T11:12:59.076Z,2.70
2018-03-20T11:15:26.545Z,2.70
2018-03-20T11:17:54.107Z,2.60
2018-03-20T11:20:21.582Z,2.70
2018-03-20T11:22:49.834Z,2.70
2018-03-20T11:25:17.365Z,2.70
2018-03-20T11:27:44.833Z,2.80
2018-03-20T11:30:12.308Z,3.00
2018-03-20T11:32:39.765Z,3.10
2018-03-20T11:35:07.294Z,3.10
2018-03-20T11:37:34.776Z,3.10
2018-03-20T11:40:02.329Z,3.00
2018-03-20T11:42:29.790Z,3.00
2018-03-20T11:44:57.344Z,3.10
2018-03-20T11:47:25.014Z,3.10
2018-03-20T11:49:52.599Z,3.30
2018-03-20T11:52:20.180Z,3.50
2018-03-20T11:54:47.740Z,3.60
2018-03-20T11:57:15.237Z,3.50
2018-03-20T11:59:42.704Z,3.30
2018-03-20T12:02:10.237Z,3.30
2018-03-20T12:04:37.710Z,3.20
2018-03-20T12:07:05.178Z,3.10
2018-03-20T12:09:38.183Z,3.10
2018-03-20T12:12:06.421Z,3.40
2018-03-20T12:14:35.398Z,3.50
2018-03-20T12:17:02.865Z,3.50
2018-03-20T12:19:30.333Z,3.60
2018-03-20T12:21:57.874Z,3.70
2018-03-20T12:24:25.396Z,3.60
2018-03-20T12:26:52.933Z,3.50
2018-03-20T12:29:21.157Z,3.50
2018-03-20T12:31:48.708Z,3.40
2018-03-20T12:34:16.175Z,3.60
2018-03-20T12:36:43.652Z,3.80
2018-03-20T12:39:11.173Z,3.90
2018-03-20T12:41:38.646Z,3.90
2018-03-20T12:44:06.225Z,4.00
2018-03-20T12:46:33.866Z,4.20
2018-03-20T12:49:02.083Z,4.40
2018-03-20T12:51:29.520Z,4.30
2018-03-20T12:53:57.088Z,4.40
2018-03-20T12:56:24.561Z,4.50
2018-03-20T12:58:52.802Z,4.60
2018-03-20T13:01:20.268Z,4.50
2018-03-20T13:03:47.756Z,4.80
2018-03-20T13:06:15.975Z,5.00
2018-03-20T13:08:43.461Z,4.90
2018-03-20T13:11:10.918Z,5.00
2018-03-20T13:13:38.384Z,5.10
2018-03-20T13:16:06.628Z,5.30
2018-03-20T13:18:34.096Z,5.20
2018-03-20T13:21:01.557Z,5.30
2018-03-20T13:23:29.077Z,5.30
2018-03-20T13:25:56.531Z,5.30
2018-03-20T13:28:24.004Z,5.10
2018-03-20T13:30:51.460Z,5.10
2018-03-20T13:33:18.929Z,5.10
2018-03-20T13:35:46.458Z,5.00
2018-03-20T13:38:13.928Z,4.90
2018-03-20T13:40:41.388Z,5.00
2018-03-20T13:43:08.855Z,5.00
2018-03-20T13:45:36.324Z,5.00
2018-03-20T13:48:03.821Z,5.00
2018-03-20T13:50:32.047Z,4.80
2018-03-20T13:52:59.521Z,4.80
2018-03-20T13:55:26.956Z,4.70
2018-03-20T13:57:54.438Z,4.60
2018-03-20T14:00:22.090Z,4.60
2018-03-20T14:02:49.547Z,4.60
2018-03-20T14:05:17.009Z,4.50
2018-03-20T14:07:44.556Z,4.50
2018-03-20T14:10:12.023Z,4.50
2018-03-20T14:12:39.480Z,4.50
2018-03-20T14:15:06.944Z,4.30
2018-03-20T14:17:34.402Z,4.30
2018-03-20T14:20:01.862Z,4.30
2018-03-20T14:22:30.122Z,4.30
2018-03-20T14:24:57.689Z,4.20
2018-03-20T14:27:25.144Z,4.40
2018-03-20T14:29:52.604Z,4.40
2018-03-20T14:32:20.060Z,4.50
2018-03-20T14:34:47.613Z,4.50
2018-03-20T14:37:15.175Z,4.50
2018-03-20T14:39:42.653Z,4.60
2018-03-20T14:42:10.871Z,4.70
2018-03-20T14:44:38.364Z,4.70
2018-03-20T14:47:05.814Z,4.80
2018-03-20T14:49:33.272Z,4.80
2018-03-20T14:52:00.745Z,4.80
2018-03-20T14:54:28.972Z,5.00
2018-03-20T14:56:56.429Z,4.90
2018-03-20T14:59:23.915Z,5.10
2018-03-20T15:01:51.384Z,5.00
2018-03-20T15:04:18.934Z,4.90
2018-03-20T15:06:46.484Z,4.80
2018-03-20T15:09:13.939Z,4.70
2018-03-20T15:11:41.506Z,4.60
2018-03-20T15:14:08.961Z,4.60
2018-03-20T15:16:37.927Z,4.50
2018-03-20T15:19:05.375Z,4.50
2018-03-20T15:21:32.924Z,4.50
2018-03-20T15:24:00.429Z,4.40
2018-03-20T15:26:27.889Z,4.40
2018-03-20T15:28:55.350Z,4.40
2018-03-20T15:31:22.821Z,4.40
2018-03-20T15:33:51.049Z,4.30
2018-03-20T15:36:18.513Z,4.30
2018-03-20T15:38:45.978Z,4.40
2018-03-20T15:41:13.432Z,4.40
2018-03-20T15:43:40.884Z,4.40
2018-03-20T15:46:08.342Z,4.40
2018-03-20T15:48:35.796Z,4.50
2018-03-20T15:51:03.288Z,4.40
2018-03-20T15:53:31.515Z,4.30
2018-03-20T15:55:59.016Z,4.30
2018-03-20T15:58:26.474Z,4.30
2018-03-20T16:00:54.707Z,4.30
2018-03-20T16:03:22.162Z,4.30
2018-03-20T16:05:49.644Z,4.40
2018-03-20T16:08:17.106Z,4.40
2018-03-20T16:10:44.656Z,4.60
2018-03-20T16:13:12.225Z,5.00
2018-03-20T16:15:39.680Z,5.20
2018-03-20T16:18:07.141Z,5.00
2018-03-20T16:20:34.600Z,4.60
2018-03-20T16:23:02.069Z,4.30
2018-03-20T16:25:30.293Z,4.10
2018-03-20T16:27:57.774Z,4.00
2018-03-20T16:30:25.231Z,4.70
2018-03-20T16:32:52.693Z,5.90
2018-03-20T16:35:20.142Z,7.20
2018-03-20T16:37:47.702Z,8.20
2018-03-20T16:40:15.156Z,8.80
2018-03-20T16:42:42.612Z,8.40
2018-03-20T16:45:10.136Z,7.80
2018-03-20T16:47:37.595Z,6.80
2018-03-20T16:50:05.054Z,6.20
2018-03-20T16:52:32.511Z,5.60
2018-03-20T16:55:00.009Z,5.00
2018-03-20T16:57:27.472Z,4.70
2018-03-20T16:59:55.081Z,4.50
2018-03-20T17:02:22.549Z,4.40
2018-03-20T17:04:50.002Z,4.30
2018-03-20T17:07:17.487Z,4.20
2018-03-20T17:09:46.454Z,3.90
2018-03-20T17:12:13.937Z,3.90
2018-03-20T17:14:41.395Z,3.80
2018-03-20T17:17:08.880Z,3.70
2018-03-20T17:19:37.094Z,3.60
2018-03-20T17:22:04.557Z,3.50
2018-03-20T17:24:32.005Z,3.60
2018-03-20T17:26:59.595Z,3.60
2018-03-20T17:29:27.053Z,3.60
2018-03-20T17:31:54.505Z,3.50
2018-03-20T17:34:21.977Z,3.50
2018-03-20T17:36:50.206Z,3.30
2018-03-20T17:39:17.712Z,3.30
2018-03-20T17:41:45.167Z,3.30
2018-03-20T17:44:12.650Z,3.30
2018-03-20T17:46:40.997Z,3.10
2018-03-20T17:49:08.469Z,3.00
2018-03-20T17:51:36.684Z,3.10
2018-03-20T17:54:04.157Z,3.00
2018-03-20T17:56:31.724Z,3.00
2018-03-20T17:58:59.191Z,3.00
2018-03-20T18:01:27.434Z,2.90
2018-03-20T18:03:55.196Z,2.90
2018-03-20T18:06:22.652Z,3.00
2018-03-20T18:08:50.195Z,2.90
2018-03-20T18:11:18.388Z,2.80
2018-03-20T18:13:45.853Z,2.80
2018-03-20T18:16:13.333Z,2.80
2018-03-20T18:18:40.793Z,2.70
2018-03-20T18:21:09.088Z,2.70
2018-03-20T18:23:37.308Z,2.80
2018-03-20T18:26:04.860Z,2.70
2018-03-20T18:28:32.331Z,2.70
2018-03-20T18:30:59.786Z,2.70
2018-03-20T18:33:27.265Z,2.70
2018-03-20T18:35:54.730Z,2.70
2018-03-20T18:38:22.187Z,2.70
2018-03-20T18:40:49.659Z,2.70
2018-03-20T18:43:17.208Z,2.70
2018-03-20T18:45:44.769Z,2.80
2018-03-20T18:48:12.229Z,2.80
2018-03-20T18:50:39.778Z,2.70
2018-03-20T18:53:08.006Z,2.60
2018-03-20T18:55:35.501Z,2.60
2018-03-20T18:58:02.952Z,2.60
2018-03-20T19:00:30.412Z,2.60
2018-03-20T19:02:57.861Z,2.60
2018-03-20T19:05:25.338Z,2.60
2018-03-20T19:07:52.910Z,2.60
2018-03-20T19:10:20.450Z,2.60
2018-03-20T19:12:47.900Z,2.50
2018-03-20T19:15:15.368Z,2.50
2018-03-20T19:17:42.922Z,2.50
2018-03-20T19:20:10.423Z,2.50
2018-03-20T19:22:37.820Z,2.40
2018-03-20T19:25:05.277Z,2.40
2018-03-20T19:27:32.728Z,2.50
2018-03-20T19:30:00.180Z,2.50
2018-03-20T19:32:27.668Z,2.50
2018-03-20T19:34:55.119Z,2.50
2018-03-20T19:37:22.572Z,2.50
2018-03-20T19:39:50.048Z,2.40
2018-03-20T19:42:17.530Z,2.40
2018-03-20T19:44:44.991Z,2.40
2018-03-20T19:47:12.453Z,2.40
2018-03-20T19:49:39.954Z,2.30
2018-03-20T19:52:07.417Z,2.30
2018-03-20T19:54:34.976Z,2.30
2018-03-20T19:57:02.540Z,2.30
2018-03-20T19:59:30.057Z,2.20
2018-03-20T20:01:57.508Z,2.20
2018-03-20T20:04:24.974Z,2.20
2018-03-20T20:06:52.420Z,2.20
2018-03-20T20:09:19.884Z,2.10
2018-03-20T20:11:47.332Z,2.10
2018-03-20T20:14:14.802Z,2.20
2018-03-20T20:16:42.280Z,2.10
2018-03-20T20:19:09.738Z,2.10
2018-03-20T20:21:37.192Z,2.10
2018-03-20T20:24:04.661Z,2.20
2018-03-20T20:26:32.121Z,2.20
2018-03-20T20:28:59.677Z,2.10
2018-03-20T20:31:27.134Z,2.10
2018-03-20T20:33:54.637Z,2.10
2018-03-20T20:36:22.099Z,2.10
2018-03-20T20:38:49.561Z,2.10
2018-03-20T20:41:17.070Z,2.00
2018-03-20T20:43:44.531Z,1.90
2018-03-20T20:46:11.977Z,1.90
2018-03-20T20:48:39.441Z,1.90
2018-03-20T20:51:06.988Z,1.90
2018-03-20T20:53:34.450Z,2.00
2018-03-20T20:56:01.911Z,1.90
2018-03-20T20:58:29.370Z,1.90
2018-03-20T21:00:56.916Z,1.90
2018-03-20T21:03:24.376Z,1.90
2018-03-20T21:05:51.827Z,1.90
2018-03-20T21:08:19.294Z,2.00
2018-03-20T21:10:46.758Z,2.00
2018-03-20T21:13:14.298Z,2.00
2018-03-20T21:15:41.852Z,2.00
2018-03-20T21:18:09.328Z,2.00
2018-03-20T21:20:36.873Z,2.00
2018-03-20T21:23:04.324Z,1.90
2018-03-20T21:25:31.779Z,1.80
2018-03-20T21:27:59.364Z,1.90
2018-03-20T21:30:26.815Z,1.90
2018-03-20T21:32:54.342Z,1.90
2018-03-20T21:35:21.804Z,1.80
2018-03-20T21:37:49.271Z,1.80
2018-03-20T21:40:16.725Z,1.80
2018-03-20T21:42:44.197Z,1.80
2018-03-20T21:45:11.743Z,1.80
2018-03-20T21:47:39.306Z,1.80
2018-03-20T21:50:06.865Z,1.80
2018-03-20T21:52:34.325Z,1.70
2018-03-20T21:55:01.788Z,1.70
2018-03-20T21:57:29.236Z,1.70
2018-03-20T21:59:56.811Z,1.60
2018-03-20T22:02:24.256Z,1.60
2018-03-20T22:04:51.710Z,1.70
2018-03-20T22:07:19.259Z,1.70
2018-03-20T22:09:46.820Z,1.70
2018-03-20T22:12:14.300Z,1.70
2018-03-20T22:14:42.515Z,1.70
2018-03-20T22:17:09.987Z,1.60
2018-03-20T22:19:37.433Z,1.70
2018-03-20T22:22:04.927Z,1.70
2018-03-20T22:24:32.380Z,1.80
2018-03-20T22:26:59.852Z,1.70
2018-03-20T22:29:27.304Z,1.70
2018-03-20T22:31:54.769Z,1.80
2018-03-20T22:34:23.025Z,1.80
2018-03-20T22:36:50.484Z,1.80
2018-03-20T22:39:17.947Z,1.90
2018-03-20T22:41:45.476Z,1.90
2018-03-20T22:44:12.925Z,1.90
2018-03-20T22:46:40.377Z,1.80
2018-03-20T22:49:07.835Z,1.80
2018-03-20T22:51:35.332Z,1.80
2018-03-20T22:54:02.786Z,1.70
2018-03-20T22:56:30.243Z,1.70
2018-03-20T22:58:57.693Z,1.70
2018-03-20T23:01:25.167Z,1.60
2018-03-20T23:03:53.435Z,1.50
2018-03-20T23:06:20.986Z,1.50
2018-03-20T23:08:48.658Z,1.50
2018-03-20T23:11:16.162Z,1.50
2018-03-20T23:13:43.620Z,1.50
2018-03-20T23:16:11.109Z,1.50
2018-03-20T23:18:38.578Z,1.50
2018-03-20T23:21:06.133Z,1.50
2018-03-20T23:23:33.602Z,1.50
2018-03-20T23:26:01.060Z,1.50
2018-03-20T23:28:29.288Z,1.50
2018-03-20T23:30:56.784Z,1.40
2018-03-20T23:33:24.246Z,1.50
2018-03-20T23:35:51.854Z,1.50
2018-03-20T23:38:19.325Z,1.50
2018-03-20T23:40:46.783Z,1.50
2018-03-20T23:43:14.244Z,1.50
2018-03-20T23:45:41.696Z,1.50
2018-03-20T23:48:09.152Z,1.50
2018-03-20T23:50:36.633Z,1.50
2018-03-20T23:53:04.105Z,1.50
2018-03-20T23:55:31.601Z,1.50
2018-03-20T23:57:59.105Z,1.50
